Latest Weather Observations for Adelaide

IDS60801

Issued at 5:35 pm CST Thursday 2 October 2014 (issued every 30 minutes, with the page automatically refreshed every 10 minutes)

About weather observations | Map of weather stations | Latest weather observations for SA | Other Formats
Station Details ID: 023090 Name: KENT TOWN Lat: -34.92 Lon: 138.62 Height: 48.0 m
Data from the previous 72 hours. | See also: Recent months at Adelaide
Date/Time
CST
Temp
°C
App
Temp
°C
Dew
Point
Rel
Hum
%
Delta-T
°C
Wind Press
QNH
hPa
Press
MSL
hPa
Rain
since 9 am
mm
Dir
 
Spd
km/h
Gust
km/h
Spd
kts
Gust
kts
02/05:30pm 17.3 15.5 9.4 59 4.1 WSW 9 15 5 8 1024.3 - 0.0
02/05:00pm 17.7 14.6 8.8 56 4.6 WSW 15 20 8 11 1024.3 - 0.0
02/04:30pm 17.8 14.2 8.4 54 4.8 SW 17 28 9 15 1024.3 - 0.0
02/04:00pm 18.0 14.4 8.5 53 4.9 WSW 17 22 9 12 1024.4 - 0.0
02/03:30pm 18.0 14.4 8.2 52 5.0 WSW 17 28 9 15 1024.6 - 0.0
02/03:00pm 17.7 13.8 7.3 50 5.2 WSW 17 26 9 14 1025.0 1025.0 0.0
02/02:30pm 18.8 14.7 7.8 48 5.6 W 19 28 10 15 1025.1 - 0.0
02/02:00pm 18.1 13.8 7.1 48 5.5 SW 19 24 10 13 1025.5 - 0.0
02/01:30pm 17.9 13.6 7.1 49 5.4 SW 19 28 10 15 1026.1 - 0.0
02/01:00pm 17.7 13.7 6.5 48 5.5 WSW 17 30 9 16 1026.6 - 0.0
02/12:30pm 17.7 13.3 6.5 48 5.5 WSW 19 28 10 15 1026.8 - 0.0
02/12:00pm 18.3 14.7 6.6 46 5.8 WSW 15 24 8 13 1027.1 1027.1 0.0
02/11:30am 17.2 14.5 5.8 47 5.5 W 9 17 5 9 1027.7 - 0.0
02/11:00am 15.9 13.2 5.4 49 5.0 SSE 9 15 5 8 1028.0 - 0.0
02/10:30am 16.2 13.5 5.5 49 5.1 E 9 17 5 9 1028.3 - 0.0
02/10:00am 16.3 12.8 5.6 49 5.2 S 13 28 7 15 1028.7 - 0.0
02/09:30am 15.0 12.3 5.7 53 4.4 S 9 15 5 8 1028.8 - 0.0
02/09:00am 14.0 11.3 5.5 56 4.0 SSE 9 17 5 9 1029.0 1029.0 0.0
02/08:30am 13.3 10.6 5.6 59 3.6 S 9 15 5 8 1029.0 - 0.0
02/08:00am 12.2 10.6 6.2 67 2.8 N 4 7 2 4 1028.9 - 0.0
02/07:30am 11.1 9.0 5.9 70 2.4 N 6 9 3 5 1028.8 - 0.0
02/07:00am 10.1 9.1 5.7 74 2.0 CALM 0 6 0 3 1028.7 - 0.0
02/06:30am 8.0 7.0 5.8 86 1.0 CALM 0 0 0 0 1028.5 - 0.0
02/06:00am 6.8 5.7 5.2 89 0.7 CALM 0 0 0 0 1028.1 1028.1 0.0
02/05:30am 6.6 5.5 5.0 89 0.7 E 0 0 0 0 1027.8 - 0.0
02/05:00am 7.2 6.1 5.2 87 0.9 CALM 0 0 0 0 1027.5 - 0.0
02/04:30am 7.1 6.0 5.3 88 0.8 CALM 0 0 0 0 1027.3 - 0.0
02/04:00am 7.3 6.2 5.3 87 0.9 CALM 0 0 0 0 1027.1 - 0.0
02/03:30am 7.6 6.5 5.3 85 1.0 CALM 0 0 0 0 1026.9 - 0.0
02/03:00am 8.2 7.2 5.5 83 1.2 CALM 0 0 0 0 1027.0 1027.0 0.0
02/02:30am 8.2 7.2 5.5 83 1.2 CALM 0 0 0 0 1027.2 - 0.0
02/02:00am 8.7 7.7 5.6 81 1.4 CALM 0 0 0 0 1027.4 - 0.0
02/01:30am 9.3 7.9 5.5 77 1.7 E 2 9 1 5 1027.6 - 0.0
02/01:00am 9.6 7.3 5.9 78 1.7 S 7 9 4 5 1028.0 - 0.0
02/12:30am 9.8 7.2 5.9 77 1.8 S 9 11 5 6 1028.0 - 0.0
02/12:00am 9.7 7.4 5.7 76 1.8 SSW 7 9 4 5 1028.0 1028.0 0.0
 
Date/Time
CST
Temp
°C
App
Temp
°C
Dew
Point
Rel
Hum
%
Delta-T
°C
Wind Press
QNH
hPa
Press
MSL
hPa
Rain
since 9 am
mm
Dir
 
Spd
km/h
Gust
km/h
Spd
kts
Gust
kts
01/11:30pm 10.2 7.9 5.6 73 2.1 S 7 9 4 5 1028.2 - 0.0
01/11:00pm 10.3 8.1 5.5 72 2.2 SSE 6 7 3 4 1028.6 - 0.0
01/10:30pm 10.5 9.6 5.9 73 2.1 SE 0 0 0 0 1028.7 - 0.0
01/10:00pm 10.9 8.8 5.7 70 2.4 SE 6 7 3 4 1028.7 - 0.0
01/09:30pm 11.5 10.0 5.1 65 2.9 SE 2 7 1 4 1028.8 - 0.0
01/09:00pm 11.9 9.0 4.9 62 3.2 SE 9 15 5 8 1028.6 1028.6 0.0
01/08:30pm 12.3 8.6 4.3 58 3.6 SE 13 17 7 9 1028.5 - 0.0
01/08:00pm 12.6 8.9 4.4 57 3.7 SSE 13 19 7 10 1028.3 - 0.0
01/07:30pm 13.1 10.3 5.3 59 3.6 SSE 9 13 5 7 1028.2 - 0.0
01/07:00pm 13.7 9.8 5.3 57 3.9 SSE 15 24 8 13 1027.7 - 0.0
01/06:30pm 14.6 11.1 5.5 54 4.3 S 13 19 7 10 1027.3 - 0.0
01/06:00pm 15.0 11.1 5.5 53 4.5 SW 15 28 8 15 1027.0 1027.0 0.0
01/05:30pm 15.5 10.5 4.8 49 5.0 SW 20 33 11 18 1026.9 - 0.0
01/05:00pm 16.6 11.8 5.5 48 5.3 WSW 20 33 11 18 1026.8 - 0.0
01/04:30pm 17.1 12.4 5.2 45 5.7 SW 19 30 10 16 1026.6 - 0.0
01/04:00pm 17.3 12.7 5.7 46 5.6 SW 19 28 10 15 1026.7 - 0.0
01/03:30pm 17.5 12.9 5.5 45 5.8 SW 19 32 10 17 1026.8 - 0.0
01/03:00pm 17.6 12.9 5.9 46 5.7 WSW 20 32 11 17 1026.7 1026.7 0.0
01/02:30pm 17.5 12.7 5.7 46 5.7 WSW 20 35 11 19 1027.0 - 0.0
01/02:00pm 17.6 12.9 5.9 46 5.7 WSW 20 30 11 16 1027.2 - 0.0
01/01:30pm 17.6 12.9 5.9 46 5.7 WSW 20 33 11 18 1027.4 - 0.0
01/01:00pm 17.1 12.2 4.9 44 5.8 SW 20 32 11 17 1027.8 - 0.0
01/12:30pm 17.9 13.1 4.9 42 6.2 WSW 19 26 10 14 1027.9 - 0.0
01/12:00pm 17.3 13.3 4.9 44 5.9 W 15 24 8 13 1028.2 1028.2 0.0
01/11:30am 17.4 13.0 4.5 42 6.1 WSW 17 26 9 14 1028.2 - 0.0
01/11:00am 17.1 13.7 4.0 41 6.1 SW 11 15 6 8 1028.5 - 0.0
01/10:30am 17.1 13.6 3.7 41 6.2 S 11 17 6 9 1028.4 - 0.0
01/10:00am 16.4 12.5 3.5 42 6.0 S 13 24 7 13 1028.4 - 0.0
01/09:30am 15.4 10.9 2.0 40 5.9 S 15 20 8 11 1028.4 - 0.0
01/09:00am 15.0 11.0 2.6 43 5.5 S 13 24 7 13 1028.2 1028.2 0.6
01/08:30am 14.4 10.1 3.5 48 4.9 S 15 26 8 14 1028.0 - 0.6
01/08:00am 13.3 9.9 4.0 53 4.2 SSW 11 19 6 10 1027.7 - 0.6
01/07:30am 12.3 10.6 5.9 65 3.0 SSW 4 7 2 4 1027.3 - 0.6
01/07:00am 11.0 9.9 5.3 68 2.6 CALM 0 0 0 0 1027.1 - 0.6
01/06:30am 10.3 8.1 5.5 72 2.2 S 6 7 3 4 1026.7 - 0.6
01/06:00am 9.6 7.5 5.9 78 1.7 S 6 7 3 4 1026.1 1026.1 0.6
01/05:30am 10.4 8.3 5.8 73 2.1 S 6 7 3 4 1025.6 - 0.6
01/05:00am 10.9 8.3 5.9 71 2.3 S 9 11 5 6 1025.2 - 0.6
01/04:30am 11.6 9.4 5.5 66 2.8 S 6 11 3 6 1024.8 - 0.6
01/04:00am 11.6 8.5 5.5 66 2.8 S 11 15 6 8 1024.4 - 0.6
01/03:30am 11.4 9.3 6.5 72 2.3 S 7 11 4 6 1024.1 - 0.6
01/03:00am 11.7 9.8 6.9 72 2.3 SSW 6 9 3 5 1023.9 1023.9 0.6
01/02:30am 11.6 8.4 7.0 73 2.2 SSW 13 19 7 10 1023.8 - 0.6
01/02:00am 11.6 9.0 6.3 70 2.5 SSW 9 17 5 9 1023.8 - 0.6
01/01:30am 10.9 8.9 6.4 74 2.1 SSW 6 9 3 5 1023.6 - 0.6
01/01:00am 11.4 8.9 6.5 72 2.3 SSW 9 13 5 7 1023.7 - 0.6
01/12:30am 12.0 9.5 6.7 70 2.5 SSW 9 17 5 9 1023.6 - 0.6
01/12:00am 11.8 9.7 6.5 70 2.5 SSW 7 11 4 6 1023.3 1023.3 0.6
 
Date/Time
CST
Temp
°C
App
Temp
°C
Dew
Point
Rel
Hum
%
Delta-T
°C
Wind Press
QNH
hPa
Press
MSL
hPa
Rain
since 9 am
mm
Dir
 
Spd
km/h
Gust
km/h
Spd
kts
Gust
kts
30/11:30pm 11.8 8.6 6.7 71 2.4 SSW 13 19 7 10 1023.0 - 0.6
30/11:00pm 12.6 9.7 6.5 66 2.9 SSW 11 17 6 9 1022.7 - 0.6
30/10:30pm 12.5 9.2 6.4 66 2.9 SW 13 19 7 10 1022.6 - 0.6
30/10:00pm 12.9 8.6 5.4 60 3.5 SW 17 30 9 16 1022.4 - 0.6
30/09:30pm 13.2 8.5 5.2 58 3.7 SW 19 35 10 19 1022.2 - 0.6
30/09:00pm 13.5 8.2 5.1 57 3.9 SW 22 35 12 19 1021.8 1021.9 0.6
30/08:30pm 14.3 9.9 7.4 63 3.4 WSW 20 30 11 16 1021.3 - 0.6
30/08:00pm 14.3 9.9 7.4 63 3.4 WSW 20 30 11 16 1020.9 - 0.6
30/07:30pm 14.6 9.4 7.3 61 3.6 W 24 41 13 22 1020.4 - 0.6
30/07:00pm 14.4 9.4 6.5 59 3.8 WSW 22 41 12 22 1019.8 - 0.6
30/06:30pm 14.7 9.7 7.9 63 3.4 W 24 50 13 27 1019.3 - 0.6
30/06:17pm 14.9 9.0 7.4 61 3.7 WSW 28 48 15 26 1019.2 - 0.6
30/06:00pm 15.2 10.0 7.1 58 4.0 WSW 24 39 13 21 1018.9 1019.0 0.6
30/05:30pm 15.7 9.2 4.9 48 5.1 WSW 28 43 15 23 1018.4 - 0.6
30/05:00pm 16.1 8.3 4.9 47 5.3 WSW 35 54 19 29 1018.0 - 0.6
30/04:34pm 16.5 10.2 5.7 49 5.2 WSW 28 48 15 26 1017.7 - 0.6
30/04:30pm 17.1 11.1 5.5 46 5.6 WSW 26 48 14 26 1017.5 - 0.6
30/04:06pm 16.9 10.8 6.5 50 5.1 WSW 28 48 15 26 1017.4 - 0.6
30/04:00pm 17.3 11.6 6.8 50 5.2 WSW 26 50 14 27 1017.3 - 0.6
30/03:52pm 17.1 10.9 6.0 48 5.4 WSW 28 46 15 25 1017.3 - 0.6
30/03:30pm 17.5 12.1 7.8 53 4.9 WSW 26 43 14 23 1017.0 - 0.6
30/03:01pm 16.9 11.8 10.5 66 3.4 W 28 46 15 25 1016.9 - 0.6
30/03:00pm 16.8 11.2 10.2 65 3.5 W 30 46 16 25 1016.9 1017.0 0.6
30/02:53pm 16.5 11.4 10.7 68 3.1 W 28 46 15 25 1016.8 - 0.6
30/02:30pm 14.5 10.1 11.7 83 1.5 W 26 37 14 20 1017.1 - 0.6
30/02:00pm 14.4 8.7 11.8 84 1.4 WSW 33 59 18 32 1016.9 - 0.2
30/01:33pm 16.6 11.8 11.8 73 2.6 W 28 46 15 25 1016.3 - 0.0
30/01:30pm 16.8 11.4 10.8 67 3.2 W 30 46 16 25 1016.2 - 0.0
30/01:00pm 20.2 14.7 10.4 53 5.3 W 30 48 16 26 1015.6 - 0.0
30/12:30pm 19.1 14.0 10.6 58 4.6 WNW 28 46 15 25 1015.6 - 0.0
30/12:10pm 18.5 13.3 11.6 64 3.8 WNW 30 48 16 26 1015.6 - 0.0
30/12:00pm 19.6 14.0 10.3 55 5.0 WNW 30 46 16 25 1015.4 1015.5 0.0
30/11:30am 20.4 14.4 10.2 52 5.5 WNW 32 52 17 28 1015.3 - 0.0
30/11:00am 20.0 13.9 9.9 52 5.4 WNW 32 54 17 29 1015.2 - 0.0
30/10:30am 20.3 14.9 9.4 49 5.8 WNW 28 50 15 27 1015.2 - 0.0
30/10:28am 20.0 14.5 9.0 49 5.8 WNW 28 50 15 27 1015.3 - 0.0
30/10:00am 19.4 14.7 9.4 52 5.3 W 24 43 13 23 1015.2 - 0.0
30/09:30am 19.4 14.9 10.1 55 5.0 WNW 24 46 13 25 1015.0 - 0.0
30/09:00am 19.3 15.0 9.3 52 5.3 WNW 22 35 12 19 1014.6 1014.7 0.0
30/08:37am 18.5 12.9 8.7 53 5.1 WNW 28 46 15 25 1014.7 - 0.0
30/08:30am 18.3 13.5 8.9 54 4.9 WNW 24 39 13 21 1014.7 - 0.0
30/08:00am 16.1 13.5 9.4 64 3.5 NNW 13 20 7 11 1014.5 - 0.0
30/07:30am 14.2 11.3 8.0 66 3.1 N 13 24 7 13 1013.5 - 0.0
30/07:00am 12.9 10.6 7.4 69 2.7 NNE 9 17 5 9 1013.3 - 0.0
30/06:30am 12.4 10.0 7.0 69 2.6 N 9 17 5 9 1013.4 - 0.0
30/06:00am 12.4 10.1 7.5 72 2.4 NNE 9 15 5 8 1012.9 1012.9 0.0
30/05:30am 12.3 10.2 8.3 76 2.0 NNE 9 13 5 7 1012.3 - 0.0
30/05:00am 11.9 10.1 9.3 84 1.3 NE 9 15 5 8 1012.1 - 0.0
30/04:30am 11.3 9.9 9.7 90 0.8 ENE 7 9 4 5 1011.9 - 0.0
30/04:00am 11.6 9.9 9.8 89 0.9 NE 9 13 5 7 1011.8 - 0.0
30/03:30am 11.7 10.0 9.9 89 0.9 NE 9 13 5 7 1011.7 - 0.0
30/03:00am 11.8 10.1 9.8 87 1.0 NNE 9 13 5 7 1012.2 1012.3 0.0
30/02:30am 11.5 10.3 9.7 89 0.9 NE 6 9 3 5 1012.2 - 0.0
30/02:00am 11.6 10.3 9.8 89 0.9 ENE 7 11 4 6 1012.5 - 0.0
30/01:30am 11.6 11.6 9.8 89 0.9 CALM 0 0 0 0 1013.2 - 0.0
30/01:00am 11.9 10.8 9.9 87 1.0 NE 6 9 3 5 1013.5 - 0.0
30/12:30am 12.3 11.3 10.2 87 1.1 NE 6 9 3 5 1013.9 - 0.0
30/12:00am 12.6 12.4 10.3 86 1.2 E 2 9 1 5 1014.3 1014.3 0.0
 
Date/Time
CST
Temp
°C
App
Temp
°C
Dew
Point
Rel
Hum
%
Delta-T
°C
Wind Press
QNH
hPa
Press
MSL
hPa
Rain
since 9 am
mm
Dir
 
Spd
km/h
Gust
km/h
Spd
kts
Gust
kts
29/11:30pm 12.7 12.9 10.4 86 1.2 CALM 0 6 0 3 1014.7 - 0.0
29/11:00pm 13.1 13.3 10.4 84 1.4 CALM 0 0 0 0 1015.0 - 0.0
29/10:30pm 13.6 13.8 10.7 82 1.5 CALM 0 0 0 0 1015.2 - 0.0
29/10:00pm 14.0 13.8 10.6 80 1.8 S 2 7 1 4 1015.4 - 0.0
29/09:30pm 14.5 13.4 10.7 78 2.0 SW 7 11 4 6 1015.3 - 0.0
29/09:00pm 15.2 13.7 10.5 73 2.5 SW 9 13 5 7 1015.2 1015.3 0.0
29/08:30pm 16.0 14.2 11.0 72 2.7 WSW 11 20 6 11 1015.0 - 0.0
29/08:00pm 16.7 14.2 9.6 63 3.7 W 13 20 7 11 1014.7 - 0.0
29/07:30pm 17.2 14.8 8.7 57 4.4 WNW 11 17 6 9 1014.4 - 0.0
29/07:00pm 17.0 15.1 8.9 59 4.2 WSW 9 15 5 8 1014.0 - 0.0
29/06:30pm 17.6 15.6 8.5 55 4.7 WNW 9 13 5 7 1013.5 - 0.0
29/06:00pm 18.4 16.3 8.1 51 5.3 WNW 9 13 5 7 1013.4 1013.4 0.0

Other Formats:

Comma delimited format used in spreadsheet applications
http://www.bom.gov.au/fwo/IDS60801/IDS60801.94675.axf

JavaScript Object Notation format (JSON) in row-major order
http://www.bom.gov.au/fwo/IDS60801/IDS60801.94675.json